Time;durP1;ratioP1;P1;durP2;ratioP2;P2;SDS_P1;SDS_P2;PMS_P1;PMS_P2;Temp;Humidity;BMP_temperature;BMP_pressure;BME280_temperature;BME280_humidity;BME280_pressure;Samples;Min_cycle;Max_cycle;Signal;HPM_P1;HPM_P2
2021/05/13 00:01:20;;;;;;;2.30;1.55;;;;;;;;;;5031565;28;20659;-80
2021/05/13 00:03:46;;;;;;;2.95;1.48;;;;;;;;;;5031959;28;20544;-80
2021/05/13 00:06:12;;;;;;;2.45;1.75;;;;;;;;;;5036749;28;20672;-80
2021/05/13 00:08:38;;;;;;;5.07;1.80;;;;;;;;;;5034375;28;20193;-80
2021/05/13 00:11:05;;;;;;;1.97;1.60;;;;;;;;;;5041606;28;20467;-80
2021/05/13 00:13:32;;;;;;;1.52;1.42;;;;;;;;;;5028038;28;20949;-79
2021/05/13 00:15:59;;;;;;;3.05;1.75;;;;;;;;;;5032206;28;20211;-79
2021/05/13 00:18:25;;;;;;;5.60;1.92;;;;;;;;;;5056812;28;20235;-80
2021/05/13 00:20:52;;;;;;;2.08;1.70;;;;;;;;;;5041443;28;20182;-80
2021/05/13 00:23:18;;;;;;;1.90;1.60;;;;;;;;;;5040844;28;20189;-80
2021/05/13 00:25:47;;;;;;;2.55;1.65;;;;;;;;;;5055752;28;20235;-80
2021/05/13 00:28:13;;;;;;;2.05;1.55;;;;;;;;;;5034520;28;20175;-79
2021/05/13 00:30:39;;;;;;;2.05;1.88;;;;;;;;;;5027215;28;20178;-80
2021/05/13 00:33:05;;;;;;;1.88;1.65;;;;;;;;;;5039436;28;20250;-79
2021/05/13 00:35:31;;;;;;;3.65;1.40;;;;;;;;;;5044519;28;20289;-80
2021/05/13 00:37:57;;;;;;;3.43;1.70;;;;;;;;;;5060546;28;20177;-79
2021/05/13 00:40:23;;;;;;;3.75;1.92;;;;;;;;;;5044233;28;20483;-81
2021/05/13 00:42:50;;;;;;;2.42;1.40;;;;;;;;;;5037334;28;20535;-80
2021/05/13 00:45:16;;;;;;;3.88;2.25;;;;;;;;;;5043968;28;20241;-79
2021/05/13 00:48:32;;;;;;;3.60;1.52;;;;;;;;;;5044591;28;20200;-79
2021/05/13 00:50:33;;;;;;;2.60;1.90;;;;;;;;;;5037870;28;20194;-80
2021/05/13 00:53:02;;;;;;;3.92;1.60;;;;;;;;;;5034179;28;20208;-79
2021/05/13 00:55:28;;;;;;;2.20;1.60;;;;;;;;;;5033493;28;20288;-81
2021/05/13 00:57:55;;;;;;;3.37;2.10;;;;;;;;;;5038568;28;20245;-81
2021/05/13 01:03:03;;;;;;;5.78;2.25;;;;;;;;;;5042274;28;20186;-81
2021/05/13 01:05:29;;;;;;;3.85;1.70;;;;;;;;;;5043649;28;20232;-80
2021/05/13 01:07:59;;;;;;;3.88;1.88;;;;;;;;;;5044385;28;20181;-80
2021/05/13 01:10:26;;;;;;;3.47;1.63;;;;;;;;;;5032467;28;20183;-81
2021/05/13 01:12:52;;;;;;;1.52;1.35;;;;;;;;;;5029543;28;20174;-81
2021/05/13 01:15:28;;;;;;;2.05;1.20;;;;;;;;;;5043919;28;20205;-80
2021/05/13 01:18:10;;;;;;;3.50;1.90;;;;;;;;;;5037146;28;20182;-79
2021/05/13 01:20:36;;;;;;;1.83;1.60;;;;;;;;;;5035142;28;20182;-79
2021/05/13 01:23:03;;;;;;;4.30;1.70;;;;;;;;;;5034017;28;20173;-79
2021/05/13 01:25:29;;;;;;;2.38;1.60;;;;;;;;;;5059660;28;20201;-77
2021/05/13 01:27:56;;;;;;;1.50;1.40;;;;;;;;;;5038114;28;20190;-77
2021/05/13 01:30:23;;;;;;;2.17;1.30;;;;;;;;;;5037167;28;20186;-77
2021/05/13 01:32:49;;;;;;;2.78;1.20;;;;;;;;;;5039489;28;20185;-77
2021/05/13 01:35:15;;;;;;;4.63;1.63;;;;;;;;;;5059786;28;20585;-77
2021/05/13 01:37:41;;;;;;;2.20;1.70;;;;;;;;;;5033254;28;20260;-77
2021/05/13 01:40:07;;;;;;;3.92;1.30;;;;;;;;;;5033245;28;20175;-77
2021/05/13 01:42:33;;;;;;;6.97;1.67;;;;;;;;;;5038499;28;20180;-78
2021/05/13 01:44:59;;;;;;;3.53;1.77;;;;;;;;;;5035473;28;20226;-78
2021/05/13 01:47:25;;;;;;;2.15;1.23;;;;;;;;;;5035923;28;20182;-78
2021/05/13 01:49:51;;;;;;;2.05;1.30;;;;;;;;;;5058669;28;20188;-79
2021/05/13 01:52:17;;;;;;;2.80;1.60;;;;;;;;;;5044380;28;20196;-78
2021/05/13 01:54:43;;;;;;;2.40;1.47;;;;;;;;;;5037271;28;20179;-78
2021/05/13 01:57:09;;;;;;;3.30;2.07;;;;;;;;;;5042052;28;20747;-79
2021/05/13 01:59:36;;;;;;;2.20;1.02;;;;;;;;;;5043514;28;20530;-78
2021/05/13 02:02:02;;;;;;;2.53;1.40;;;;;;;;;;5043903;28;20208;-80
2021/05/13 02:04:29;;;;;;;0.90;0.90;;;;;;;;;;5044448;28;20200;-80
2021/05/13 02:06:55;;;;;;;4.22;0.80;;;;;;;;;;5044947;28;20237;-80
2021/05/13 02:09:21;;;;;;;2.80;0.98;;;;;;;;;;5043084;28;20198;-79
2021/05/13 02:11:47;;;;;;;2.40;0.80;;;;;;;;;;5035523;28;20265;-79
2021/05/13 02:14:14;;;;;;;1.07;1.00;;;;;;;;;;5033849;28;20440;-81
2021/05/13 02:16:40;;;;;;;0.80;0.70;;;;;;;;;;5032688;28;20464;-78
2021/05/13 02:19:06;;;;;;;1.67;0.80;;;;;;;;;;5032110;28;20274;-77
2021/05/13 02:21:32;;;;;;;1.13;1.02;;;;;;;;;;5037695;28;20429;-77
2021/05/13 02:23:58;;;;;;;2.40;0.87;;;;;;;;;;5040598;28;20333;-77
2021/05/13 02:26:24;;;;;;;1.00;0.73;;;;;;;;;;5042708;28;20439;-76
2021/05/13 02:28:50;;;;;;;0.80;0.70;;;;;;;;;;5032571;28;20238;-76
2021/05/13 02:31:16;;;;;;;2.08;0.80;;;;;;;;;;5032517;28;20548;-76
2021/05/13 02:33:42;;;;;;;1.77;1.00;;;;;;;;;;5045145;28;20189;-76
2021/05/13 02:36:10;;;;;;;0.93;0.80;;;;;;;;;;5043580;28;20471;-77
2021/05/13 02:38:36;;;;;;;2.78;1.00;;;;;;;;;;5040135;28;20192;-76
2021/05/13 02:41:02;;;;;;;1.00;0.85;;;;;;;;;;5032794;28;20197;-76
2021/05/13 02:43:28;;;;;;;1.17;0.90;;;;;;;;;;5039524;28;20205;-76
2021/05/13 02:45:54;;;;;;;1.35;0.85;;;;;;;;;;5044794;28;20229;-76
2021/05/13 02:48:20;;;;;;;1.70;1.00;;;;;;;;;;5033019;28;20210;-77
2021/05/13 02:50:46;;;;;;;2.00;0.90;;;;;;;;;;5031044;28;20673;-76
2021/05/13 02:53:16;;;;;;;0.70;0.70;;;;;;;;;;5033440;28;20448;-76
2021/05/13 02:55:42;;;;;;;2.15;1.10;;;;;;;;;;5041796;28;20497;-77
2021/05/13 02:58:08;;;;;;;1.83;0.80;;;;;;;;;;5031946;28;20179;-79
2021/05/13 03:01:08;;;;;;;1.13;0.80;;;;;;;;;;5035601;28;20521;-80
2021/05/13 03:03:20;;;;;;;1.55;0.70;;;;;;;;;;5043395;28;20678;-83
2021/05/13 03:05:47;;;;;;;1.30;0.60;;;;;;;;;;5057778;28;20272;-81
2021/05/13 03:08:14;;;;;;;3.72;0.75;;;;;;;;;;5039344;28;20185;-83
2021/05/13 03:13:07;;;;;;;1.65;0.70;;;;;;;;;;5043789;28;20197;-79
2021/05/13 03:15:33;;;;;;;1.63;0.77;;;;;;;;;;5042402;28;20193;-77
2021/05/13 03:18:00;;;;;;;0.57;0.50;;;;;;;;;;5034975;28;20189;-78
2021/05/13 03:20:38;;;;;;;1.02;0.50;;;;;;;;;;5034685;28;20486;-79
2021/05/13 03:23:06;;;;;;;0.80;0.60;;;;;;;;;;5031888;28;20267;-78
2021/05/13 03:25:35;;;;;;;0.90;0.60;;;;;;;;;;5046245;28;20212;-79
2021/05/13 03:28:08;;;;;;;2.65;0.90;;;;;;;;;;5032817;28;20208;-79
2021/05/13 03:30:38;;;;;;;0.75;0.50;;;;;;;;;;5059730;28;20191;-78
2021/05/13 03:33:04;;;;;;;1.13;0.70;;;;;;;;;;5038260;28;20192;-78
2021/05/13 03:35:31;;;;;;;2.65;0.57;;;;;;;;;;5035211;28;20244;-78
2021/05/13 03:37:57;;;;;;;2.55;0.60;;;;;;;;;;5038110;28;20189;-78
2021/05/13 03:40:23;;;;;;;1.60;0.70;;;;;;;;;;5031761;28;20277;-79
2021/05/13 03:42:49;;;;;;;0.90;0.68;;;;;;;;;;5034541;28;20177;-78
2021/05/13 03:45:15;;;;;;;0.70;0.60;;;;;;;;;;5041163;28;20223;-78
2021/05/13 03:47:41;;;;;;;0.85;0.50;;;;;;;;;;5035194;28;20202;-78
2021/05/13 03:50:08;;;;;;;0.70;0.60;;;;;;;;;;5030597;28;20181;-78
2021/05/13 03:52:34;;;;;;;0.90;0.60;;;;;;;;;;5042213;28;20205;-78
2021/05/13 03:55:00;;;;;;;0.70;0.60;;;;;;;;;;5042720;28;20190;-79
2021/05/13 03:57:26;;;;;;;2.37;0.70;;;;;;;;;;5035234;28;20598;-79
2021/05/13 03:59:55;;;;;;;1.90;0.60;;;;;;;;;;5038116;28;20432;-79
2021/05/13 04:02:32;;;;;;;1.85;0.80;;;;;;;;;;5041524;28;20178;-77
2021/05/13 04:04:59;;;;;;;1.45;0.60;;;;;;;;;;5029890;28;20661;-79
2021/05/13 04:07:33;;;;;;;1.65;0.80;;;;;;;;;;5041046;28;20183;-78
2021/05/13 04:09:59;;;;;;;0.60;0.60;;;;;;;;;;5042305;28;20212;-81
2021/05/13 04:12:26;;;;;;;1.50;0.70;;;;;;;;;;5057693;28;20645;-79
2021/05/13 04:14:54;;;;;;;1.27;0.70;;;;;;;;;;5054197;28;20188;-79
2021/05/13 04:17:20;;;;;;;3.53;0.80;;;;;;;;;;5030797;28;20221;-78
2021/05/13 04:19:46;;;;;;;3.70;1.05;;;;;;;;;;5052143;28;20223;-78
2021/05/13 04:22:13;;;;;;;1.93;0.67;;;;;;;;;;5030988;28;20189;-79
2021/05/13 04:24:40;;;;;;;2.70;0.70;;;;;;;;;;5038696;28;20421;-79
2021/05/13 04:27:06;;;;;;;1.67;0.88;;;;;;;;;;5039060;28;20182;-79
2021/05/13 04:29:32;;;;;;;1.50;0.73;;;;;;;;;;5041443;28;20192;-79
2021/05/13 04:31:57;;;;;;;1.10;0.80;;;;;;;;;;5027664;28;20175;-79
2021/05/13 04:34:24;;;;;;;2.43;1.00;;;;;;;;;;5028065;28;20448;-79
2021/05/13 04:36:50;;;;;;;3.80;1.35;;;;;;;;;;5057530;28;20491;-79
2021/05/13 04:39:16;;;;;;;5.72;1.00;;;;;;;;;;5036527;28;20273;-80
2021/05/13 04:41:42;;;;;;;3.45;1.10;;;;;;;;;;5033890;28;20388;-81
2021/05/13 04:44:08;;;;;;;0.85;0.80;;;;;;;;;;5041364;28;20236;-79
2021/05/13 04:46:35;;;;;;;1.98;0.85;;;;;;;;;;5031431;28;20187;-79
2021/05/13 04:51:32;;;;;;;1.08;0.90;;;;;;;;;;5032078;28;20248;-80
2021/05/13 04:53:58;;;;;;;1.35;0.90;;;;;;;;;;5029078;28;20237;-80
2021/05/13 04:56:24;;;;;;;1.10;0.85;;;;;;;;;;5035109;28;20219;-80
2021/05/13 04:58:51;;;;;;;0.80;0.70;;;;;;;;;;5040643;28;20345;-79
2021/05/13 05:01:18;;;;;;;3.58;1.00;;;;;;;;;;5037607;28;20186;-79
2021/05/13 05:03:43;;;;;;;3.75;1.27;;;;;;;;;;5057428;28;20648;-79
2021/05/13 05:06:12;;;;;;;5.10;0.93;;;;;;;;;;5036780;28;20224;-81
2021/05/13 05:08:39;;;;;;;1.88;0.80;;;;;;;;;;5034587;28;20197;-80
2021/05/13 05:11:05;;;;;;;3.05;0.90;;;;;;;;;;5033535;28;20652;-79
2021/05/13 05:13:31;;;;;;;1.92;1.00;;;;;;;;;;5035650;28;20192;-81
2021/05/13 05:15:57;;;;;;;1.63;0.80;;;;;;;;;;5032072;28;20672;-79
2021/05/13 05:18:24;;;;;;;1.08;0.90;;;;;;;;;;5040240;28;20182;-80
2021/05/13 05:20:51;;;;;;;0.80;0.80;;;;;;;;;;5037272;28;20178;-79
2021/05/13 05:23:17;;;;;;;2.47;1.13;;;;;;;;;;5037493;28;20190;-80
2021/05/13 05:25:43;;;;;;;1.45;0.90;;;;;;;;;;5033923;28;20185;-82
2021/05/13 05:28:10;;;;;;;3.60;1.20;;;;;;;;;;5028692;28;20182;-79
2021/05/13 05:30:36;;;;;;;1.02;0.90;;;;;;;;;;5040485;28;20383;-77
2021/05/13 05:33:03;;;;;;;1.80;1.00;;;;;;;;;;5030891;28;20182;-79
2021/05/13 05:35:29;;;;;;;1.05;0.88;;;;;;;;;;5043287;28;20201;-79
2021/05/13 05:37:55;;;;;;;1.40;0.80;;;;;;;;;;5035263;28;20205;-78
2021/05/13 05:40:21;;;;;;;1.98;0.90;;;;;;;;;;5032944;28;20440;-79
2021/05/13 05:42:48;;;;;;;1.00;0.90;;;;;;;;;;5032464;28;20648;-79
2021/05/13 05:45:14;;;;;;;1.20;1.08;;;;;;;;;;5040439;28;20291;-79
2021/05/13 05:47:41;;;;;;;0.90;0.80;;;;;;;;;;5035450;28;20182;-80
2021/05/13 05:50:07;;;;;;;2.65;1.00;;;;;;;;;;5032143;28;20194;-81
2021/05/13 05:52:33;;;;;;;1.33;0.80;;;;;;;;;;5037381;28;20174;-79
2021/05/13 05:54:59;;;;;;;4.25;0.95;;;;;;;;;;5029836;28;20240;-80
2021/05/13 05:57:26;;;;;;;2.65;1.00;;;;;;;;;;5041532;28;20174;-79
2021/05/13 05:59:52;;;;;;;0.95;0.80;;;;;;;;;;5037495;28;20179;-78
2021/05/13 06:02:18;;;;;;;4.65;1.10;;;;;;;;;;5040522;28;20178;-79
2021/05/13 06:04:44;;;;;;;2.45;1.00;;;;;;;;;;5032204;28;20178;-82
2021/05/13 06:07:10;;;;;;;2.47;0.93;;;;;;;;;;5038670;28;20178;-79
2021/05/13 06:09:36;;;;;;;3.50;1.20;;;;;;;;;;5037591;28;20198;-81
2021/05/13 06:12:02;;;;;;;2.67;1.50;;;;;;;;;;5035932;28;20178;-80
2021/05/13 06:14:28;;;;;;;1.77;1.02;;;;;;;;;;5035148;28;20471;-82
2021/05/13 06:16:54;;;;;;;1.47;1.10;;;;;;;;;;5036869;28;20280;-80
2021/05/13 06:19:20;;;;;;;1.20;1.10;;;;;;;;;;5032258;28;20441;-81
2021/05/13 06:21:46;;;;;;;3.22;1.05;;;;;;;;;;5039318;28;20433;-80
2021/05/13 06:24:12;;;;;;;1.65;1.20;;;;;;;;;;5043142;28;20186;-81
2021/05/13 06:26:39;;;;;;;5.35;1.10;;;;;;;;;;5034629;28;20209;-81
2021/05/13 06:29:06;;;;;;;3.25;1.30;;;;;;;;;;5032809;28;20411;-80
2021/05/13 06:31:32;;;;;;;1.83;1.10;;;;;;;;;;5038036;28;20209;-80
2021/05/13 06:33:58;;;;;;;3.45;0.90;;;;;;;;;;5042934;28;20178;-80
2021/05/13 06:36:24;;;;;;;1.33;0.93;;;;;;;;;;5030983;28;20217;-81
2021/05/13 06:38:50;;;;;;;3.97;1.23;;;;;;;;;;5038459;28;20184;-80
2021/05/13 06:41:16;;;;;;;1.65;1.30;;;;;;;;;;5037041;28;20213;-82
2021/05/13 06:43:42;;;;;;;2.25;1.20;;;;;;;;;;5043252;28;20170;-82
2021/05/13 06:46:09;;;;;;;2.27;1.40;;;;;;;;;;5033069;28;20221;-83
2021/05/13 06:48:35;;;;;;;1.38;1.13;;;;;;;;;;5033629;28;20437;-82
2021/05/13 06:51:04;;;;;;;4.95;1.35;;;;;;;;;;5033428;28;20280;-82
2021/05/13 06:53:31;;;;;;;2.35;1.38;;;;;;;;;;5037741;28;20186;-82
2021/05/13 06:55:57;;;;;;;1.95;1.00;;;;;;;;;;5032797;28;20231;-86
2021/05/13 06:58:26;;;;;;;2.78;1.50;;;;;;;;;;5035638;28;20186;-83
2021/05/13 07:00:52;;;;;;;1.90;1.40;;;;;;;;;;5039053;28;20178;-80
2021/05/13 07:03:18;;;;;;;2.13;1.55;;;;;;;;;;5030550;28;20191;-82
2021/05/13 07:05:44;;;;;;;4.07;1.08;;;;;;;;;;5033199;28;20192;-82
2021/05/13 07:08:10;;;;;;;2.22;1.20;;;;;;;;;;5039260;28;20196;-81
2021/05/13 07:10:36;;;;;;;2.55;1.42;;;;;;;;;;5044866;28;20250;-80
2021/05/13 07:13:02;;;;;;;2.08;1.10;;;;;;;;;;5058785;28;20201;-80
2021/05/13 07:15:29;;;;;;;3.45;1.45;;;;;;;;;;5036395;28;20229;-79
2021/05/13 07:17:55;;;;;;;5.45;1.58;;;;;;;;;;5038449;28;20178;-78
2021/05/13 07:20:22;;;;;;;3.63;1.33;;;;;;;;;;5041510;28;20246;-80
2021/05/13 07:22:49;;;;;;;2.45;1.10;;;;;;;;;;5041505;28;20432;-80
2021/05/13 07:25:15;;;;;;;2.00;1.30;;;;;;;;;;5030411;28;20177;-83
2021/05/13 07:27:41;;;;;;;2.38;1.30;;;;;;;;;;5042261;28;20174;-80
2021/05/13 07:30:08;;;;;;;1.70;1.30;;;;;;;;;;5038711;28;20257;-81
2021/05/13 07:32:34;;;;;;;3.25;1.20;;;;;;;;;;5057690;28;20196;-82
2021/05/13 07:34:59;;;;;;;3.97;1.60;;;;;;;;;;5036554;28;20205;-79
2021/05/13 07:37:26;;;;;;;1.60;1.20;;;;;;;;;;5038816;28;20445;-80
2021/05/13 07:39:52;;;;;;;2.20;1.38;;;;;;;;;;5059224;28;20503;-81
2021/05/13 07:42:17;;;;;;;4.55;1.05;;;;;;;;;;5033479;28;20205;-79
2021/05/13 07:44:43;;;;;;;3.00;1.30;;;;;;;;;;5030841;28;20699;-79
2021/05/13 07:47:10;;;;;;;4.33;1.27;;;;;;;;;;5041341;28;20471;-81
2021/05/13 07:49:37;;;;;;;2.60;1.50;;;;;;;;;;5049245;28;20479;-81
2021/05/13 07:52:03;;;;;;;1.83;1.00;;;;;;;;;;5038864;28;20703;-80
2021/05/13 07:54:29;;;;;;;4.22;1.30;;;;;;;;;;5030110;28;20204;-80
2021/05/13 07:56:55;;;;;;;2.58;1.20;;;;;;;;;;5035272;28;20205;-81
2021/05/13 07:59:25;;;;;;;1.33;1.23;;;;;;;;;;5038425;28;20182;-80
2021/05/13 08:01:51;;;;;;;3.28;1.30;;;;;;;;;;5034962;28;20178;-79
2021/05/13 08:04:17;;;;;;;3.33;1.48;;;;;;;;;;5037155;28;20456;-81
2021/05/13 08:06:45;;;;;;;3.95;1.83;;;;;;;;;;5044107;28;20256;-80
2021/05/13 08:09:11;;;;;;;2.03;1.05;;;;;;;;;;5038354;28;20192;-81
2021/05/13 08:11:37;;;;;;;3.50;1.17;;;;;;;;;;5041514;28;20189;-81
2021/05/13 08:14:03;;;;;;;1.63;1.40;;;;;;;;;;5039168;28;20432;-81
2021/05/13 08:16:29;;;;;;;4.93;1.35;;;;;;;;;;5056304;28;20297;-83
2021/05/13 08:18:55;;;;;;;1.55;1.30;;;;;;;;;;5032577;28;20183;-82
2021/05/13 08:21:21;;;;;;;1.30;1.20;;;;;;;;;;5032207;28;20213;-82
2021/05/13 08:23:47;;;;;;;5.00;1.40;;;;;;;;;;5030710;28;20433;-82
2021/05/13 08:26:13;;;;;;;2.90;1.20;;;;;;;;;;5031858;28;20443;-84
2021/05/13 08:28:39;;;;;;;2.05;1.85;;;;;;;;;;5029133;28;20783;-80
2021/05/13 08:31:05;;;;;;;3.70;1.40;;;;;;;;;;5030776;28;20193;-81
2021/05/13 08:33:31;;;;;;;3.83;1.23;;;;;;;;;;5037236;28;20462;-81
2021/05/13 08:35:57;;;;;;;1.50;1.17;;;;;;;;;;5037155;28;20507;-80
2021/05/13 08:38:23;;;;;;;1.87;1.00;;;;;;;;;;5041717;28;20181;-80
2021/05/13 08:40:49;;;;;;;2.13;1.13;;;;;;;;;;5048837;28;20461;-82
2021/05/13 08:43:22;;;;;;;2.25;1.15;;;;;;;;;;5037550;28;20190;-80
2021/05/13 08:45:50;;;;;;;2.97;1.33;;;;;;;;;;5025319;28;20221;-79
2021/05/13 08:48:16;;;;;;;3.35;1.58;;;;;;;;;;5026311;28;20205;-80
2021/05/13 08:50:42;;;;;;;1.60;0.93;;;;;;;;;;5039293;28;20182;-79
2021/05/13 08:53:08;;;;;;;1.30;1.00;;;;;;;;;;5041625;28;20208;-84
2021/05/13 08:55:35;;;;;;;3.45;1.20;;;;;;;;;;5059546;28;20464;-79
2021/05/13 08:58:01;;;;;;;3.53;0.90;;;;;;;;;;5042201;28;20181;-79
2021/05/13 09:00:30;;;;;;;2.05;1.33;;;;;;;;;;5045215;28;20178;-79
2021/05/13 09:02:56;;;;;;;1.55;1.20;;;;;;;;;;5042507;28;20182;-80
2021/05/13 09:05:22;;;;;;;3.83;1.25;;;;;;;;;;5035835;28;20189;-78
2021/05/13 09:07:48;;;;;;;1.20;1.10;;;;;;;;;;5060379;28;20323;-78
2021/05/13 09:10:16;;;;;;;1.33;0.90;;;;;;;;;;5044523;28;20648;-78
2021/05/13 09:12:45;;;;;;;3.15;1.00;;;;;;;;;;5062158;28;20281;-78
2021/05/13 09:15:15;;;;;;;2.58;1.42;;;;;;;;;;5043797;28;20213;-79
2021/05/13 09:17:43;;;;;;;2.05;1.10;;;;;;;;;;5041237;28;20174;-78
2021/05/13 09:20:29;;;;;;;2.97;1.08;;;;;;;;;;5043161;28;20185;-78
2021/05/13 09:23:14;;;;;;;2.75;2.55;;;;;;;;;;5034191;28;20170;-78
2021/05/13 09:25:40;;;;;;;1.63;0.88;;;;;;;;;;5041556;28;20178;-79
2021/05/13 09:28:07;;;;;;;2.05;1.25;;;;;;;;;;5044044;28;20182;-80
2021/05/13 09:30:34;;;;;;;1.38;1.00;;;;;;;;;;5039936;28;20201;-79
2021/05/13 09:33:01;;;;;;;5.28;1.23;;;;;;;;;;5038170;28;20182;-78
2021/05/13 09:35:37;;;;;;;1.10;1.02;;;;;;;;;;5034440;28;20206;-80
2021/05/13 09:38:04;;;;;;;1.80;1.30;;;;;;;;;;5033678;28;20654;-79
2021/05/13 09:40:38;;;;;;;2.15;0.73;;;;;;;;;;5043301;28;20233;-76
2021/05/13 09:43:11;;;;;;;1.15;0.80;;;;;;;;;;5034639;28;20233;-78
2021/05/13 09:45:44;;;;;;;1.60;0.90;;;;;;;;;;5036903;28;20790;-80
2021/05/13 09:48:10;;;;;;;1.58;0.90;;;;;;;;;;5039923;28;20204;-79
2021/05/13 09:50:36;;;;;;;1.60;1.38;;;;;;;;;;5037961;28;20294;-80
2021/05/13 09:53:03;;;;;;;1.85;0.80;;;;;;;;;;5043977;28;20196;-78
2021/05/13 09:55:33;;;;;;;1.75;1.38;;;;;;;;;;5059049;28;20194;-78
2021/05/13 09:58:12;;;;;;;1.33;1.05;;;;;;;;;;5045470;28;20268;-78
2021/05/13 10:00:46;;;;;;;2.70;1.20;;;;;;;;;;5038714;28;20174;-77
2021/05/13 10:03:16;;;;;;;3.05;1.35;;;;;;;;;;5037775;28;20208;-76
2021/05/13 10:05:44;;;;;;;4.57;1.13;;;;;;;;;;5032951;28;20181;-77
2021/05/13 10:08:11;;;;;;;3.58;1.17;;;;;;;;;;5043553;28;20364;-78
2021/05/13 10:10:38;;;;;;;1.88;1.10;;;;;;;;;;5032479;28;20178;-77
2021/05/13 10:13:06;;;;;;;2.38;1.10;;;;;;;;;;5032922;28;20687;-78
2021/05/13 10:15:33;;;;;;;3.38;0.95;;;;;;;;;;5037750;28;20197;-77
2021/05/13 10:18:01;;;;;;;1.98;1.17;;;;;;;;;;5040200;28;20194;-77
2021/05/13 10:20:28;;;;;;;2.58;1.63;;;;;;;;;;5040358;28;20347;-78
2021/05/13 10:22:55;;;;;;;2.65;2.00;;;;;;;;;;5032957;28;20181;-78
2021/05/13 10:25:25;;;;;;;2.47;1.50;;;;;;;;;;5032672;28;20189;-77
2021/05/13 10:27:58;;;;;;;1.98;1.10;;;;;;;;;;5042520;28;20170;-77
2021/05/13 10:30:25;;;;;;;1.27;0.95;;;;;;;;;;5042439;28;20204;-81
2021/05/13 10:33:08;;;;;;;3.25;1.48;;;;;;;;;;5040166;28;20177;-79
2021/05/13 10:35:34;;;;;;;7.38;1.48;;;;;;;;;;5039336;28;20205;-78
2021/05/13 10:38:03;;;;;;;1.50;1.25;;;;;;;;;;5043221;28;20252;-77
2021/05/13 10:43:13;;;;;;;1.48;1.13;;;;;;;;;;5044281;28;20184;-79
2021/05/13 10:45:48;;;;;;;0.98;0.90;;;;;;;;;;5050964;28;20232;-80
2021/05/13 10:48:21;;;;;;;2.75;1.00;;;;;;;;;;5038345;28;20201;-79
2021/05/13 10:50:48;;;;;;;3.15;0.90;;;;;;;;;;5030843;28;20185;-78
2021/05/13 10:53:32;;;;;;;1.25;1.02;;;;;;;;;;5042532;28;20178;-78
2021/05/13 10:56:10;;;;;;;3.45;1.10;;;;;;;;;;5039693;28;20212;-81
2021/05/13 10:58:59;;;;;;;0.80;0.77;;;;;;;;;;5031645;28;20180;-78
2021/05/13 11:01:46;;;;;;;2.08;1.10;;;;;;;;;;5031914;28;20175;-77
2021/05/13 11:04:24;;;;;;;2.10;1.00;;;;;;;;;;5042196;28;20184;-78
2021/05/13 11:07:06;;;;;;;2.35;1.00;;;;;;;;;;5029732;28;20268;-82
2021/05/13 11:09:43;;;;;;;2.83;1.25;;;;;;;;;;5033248;28;20182;-79
2021/05/13 11:12:21;;;;;;;3.25;1.23;;;;;;;;;;5034926;28;20196;-79
2021/05/13 11:17:57;;;;;;;2.22;1.00;;;;;;;;;;5041713;28;20655;-80
2021/05/13 11:20:28;;;;;;;1.10;1.00;;;;;;;;;;5037458;28;20194;-79
2021/05/13 11:22:54;;;;;;;1.90;1.60;;;;;;;;;;5030162;28;20178;-79
2021/05/13 11:25:21;;;;;;;2.53;1.00;;;;;;;;;;5046807;28;20194;-78
2021/05/13 11:27:47;;;;;;;1.95;1.05;;;;;;;;;;5050513;28;20199;-78
2021/05/13 11:30:13;;;;;;;1.88;1.00;;;;;;;;;;5028403;28;20194;-78
2021/05/13 11:32:39;;;;;;;3.20;1.20;;;;;;;;;;5032958;28;20212;-77
2021/05/13 11:35:06;;;;;;;2.97;1.30;;;;;;;;;;5029796;28;20223;-79
2021/05/13 11:37:32;;;;;;;2.63;1.48;;;;;;;;;;5026479;28;20870;-78
2021/05/13 11:40:15;;;;;;;4.07;1.27;;;;;;;;;;5035518;28;20212;-76
2021/05/13 11:42:41;;;;;;;2.90;1.13;;;;;;;;;;5037756;28;20867;-78
2021/05/13 11:45:15;;;;;;;2.50;1.00;;;;;;;;;;5039007;28;20226;-77
2021/05/13 11:47:41;;;;;;;1.50;1.00;;;;;;;;;;5034036;28;20194;-77
2021/05/13 11:50:07;;;;;;;1.17;0.90;;;;;;;;;;5032127;28;20189;-77
2021/05/13 11:52:34;;;;;;;2.55;1.45;;;;;;;;;;5038358;28;20655;-79
2021/05/13 11:55:00;;;;;;;1.90;1.20;;;;;;;;;;5030184;28;20364;-77
2021/05/13 11:57:26;;;;;;;1.90;1.03;;;;;;;;;;5057972;28;20356;-76
2021/05/13 11:59:52;;;;;;;2.33;1.20;;;;;;;;;;5054772;28;20448;-77
2021/05/13 12:02:18;;;;;;;1.95;1.00;;;;;;;;;;5032540;28;20213;-78
2021/05/13 12:04:44;;;;;;;2.42;1.38;;;;;;;;;;5056593;28;20181;-76
2021/05/13 12:07:15;;;;;;;2.92;1.20;;;;;;;;;;5030195;28;20194;-78
2021/05/13 12:09:49;;;;;;;2.90;1.00;;;;;;;;;;5053427;28;20188;-81
2021/05/13 12:12:22;;;;;;;2.75;1.00;;;;;;;;;;5049383;28;20177;-77
2021/05/13 12:14:48;;;;;;;1.20;1.10;;;;;;;;;;5032928;28;20186;-77
2021/05/13 12:17:14;;;;;;;2.90;1.40;;;;;;;;;;5040321;28;20201;-77
2021/05/13 12:19:42;;;;;;;2.40;1.13;;;;;;;;;;5037486;28;20800;-77
2021/05/13 12:22:13;;;;;;;1.98;1.13;;;;;;;;;;5022956;28;20425;-77
2021/05/13 12:24:43;;;;;;;2.00;1.20;;;;;;;;;;5040793;28;20683;-82
2021/05/13 12:27:14;;;;;;;4.13;1.08;;;;;;;;;;5037026;28;20198;-78
2021/05/13 12:29:40;;;;;;;1.52;0.77;;;;;;;;;;5038162;28;20193;-76
2021/05/13 12:32:07;;;;;;;1.08;0.90;;;;;;;;;;5036015;28;20185;-77
2021/05/13 12:34:42;;;;;;;1.50;1.00;;;;;;;;;;5035072;28;20197;-79
2021/05/13 12:37:09;;;;;;;1.45;0.70;;;;;;;;;;5034042;28;20208;-79
2021/05/13 12:39:36;;;;;;;2.50;1.10;;;;;;;;;;5037801;28;20263;-79
2021/05/13 12:42:03;;;;;;;2.60;1.00;;;;;;;;;;5039727;28;20496;-79
2021/05/13 12:44:34;;;;;;;1.93;1.40;;;;;;;;;;5037870;28;20398;-79
2021/05/13 12:47:01;;;;;;;1.20;0.87;;;;;;;;;;5060227;28;20448;-78
2021/05/13 12:49:29;;;;;;;1.83;1.00;;;;;;;;;;5040221;28;20462;-78
2021/05/13 12:51:59;;;;;;;2.83;1.10;;;;;;;;;;5051933;28;20437;-77
2021/05/13 12:54:25;;;;;;;1.80;0.97;;;;;;;;;;5034395;28;20423;-80
2021/05/13 12:56:51;;;;;;;1.93;1.10;;;;;;;;;;5038865;28;20486;-81
2021/05/13 12:59:17;;;;;;;1.47;0.90;;;;;;;;;;5035090;28;20434;-79
2021/05/13 13:01:44;;;;;;;2.77;0.70;;;;;;;;;;5044831;28;20429;-79
2021/05/13 13:04:11;;;;;;;2.27;0.90;;;;;;;;;;5033735;28;20655;-78
2021/05/13 13:06:55;;;;;;;0.70;0.67;;;;;;;;;;5046614;28;20394;-80
2021/05/13 13:09:31;;;;;;;1.30;0.80;;;;;;;;;;5039039;28;20427;-79
2021/05/13 13:12:04;;;;;;;2.15;0.65;;;;;;;;;;5041048;28;20402;-79
2021/05/13 13:14:43;;;;;;;0.80;0.70;;;;;;;;;;5041898;28;20410;-80
2021/05/13 13:17:26;;;;;;;1.98;0.70;;;;;;;;;;5034501;28;20209;-79
2021/05/13 13:20:06;;;;;;;1.85;0.85;;;;;;;;;;5043998;28;20188;-77
2021/05/13 13:22:33;;;;;;;1.00;0.80;;;;;;;;;;5040501;28;20202;-77
2021/05/13 13:25:03;;;;;;;1.00;0.90;;;;;;;;;;5035566;28;20234;-77
2021/05/13 13:27:34;;;;;;;0.80;0.70;;;;;;;;;;5045330;28;20166;-77
2021/05/13 13:30:00;;;;;;;1.70;0.70;;;;;;;;;;5039051;28;20259;-77
2021/05/13 13:32:27;;;;;;;1.60;0.97;;;;;;;;;;5036106;28;20183;-77
2021/05/13 13:34:54;;;;;;;0.85;0.70;;;;;;;;;;5058780;28;20445;-78
2021/05/13 13:37:20;;;;;;;1.50;0.90;;;;;;;;;;5043075;28;20573;-77
2021/05/13 13:39:46;;;;;;;1.27;0.70;;;;;;;;;;5061999;28;20184;-80
2021/05/13 13:42:14;;;;;;;0.80;0.80;;;;;;;;;;5044364;28;20236;-78
2021/05/13 13:44:40;;;;;;;1.70;0.70;;;;;;;;;;5043752;28;20463;-79
2021/05/13 13:47:05;;;;;;;0.80;0.73;;;;;;;;;;5044206;28;20268;-80
2021/05/13 13:49:32;;;;;;;2.60;0.90;;;;;;;;;;5035276;28;20580;-78
2021/05/13 13:51:58;;;;;;;2.13;1.00;;;;;;;;;;5045849;28;20436;-80
2021/05/13 13:54:24;;;;;;;1.20;1.10;;;;;;;;;;5038239;28;20189;-79
2021/05/13 13:56:50;;;;;;;0.70;0.70;;;;;;;;;;5039268;28;20503;-78
2021/05/13 13:59:16;;;;;;;65.70;19.27;;;;;;;;;;5044513;28;20429;-77
2021/05/13 14:01:42;;;;;;;5.93;1.50;;;;;;;;;;5032881;28;20455;-79
2021/05/13 14:04:08;;;;;;;2.50;0.70;;;;;;;;;;5042557;28;20468;-80
2021/05/13 14:06:34;;;;;;;2.67;1.40;;;;;;;;;;5037668;28;20595;-80
2021/05/13 14:09:00;;;;;;;3.90;0.97;;;;;;;;;;5040943;28;20444;-78
2021/05/13 14:11:29;;;;;;;0.90;0.70;;;;;;;;;;5043823;28;20432;-78
2021/05/13 14:13:57;;;;;;;0.80;0.70;;;;;;;;;;5043692;28;20798;-78
2021/05/13 14:16:23;;;;;;;2.25;1.00;;;;;;;;;;5031468;28;20237;-77
2021/05/13 14:18:49;;;;;;;1.30;0.80;;;;;;;;;;5035811;28;20190;-76
2021/05/13 14:21:15;;;;;;;1.70;1.60;;;;;;;;;;5036642;28;20528;-79
2021/05/13 14:23:42;;;;;;;4.45;1.58;;;;;;;;;;5037549;28;20460;-79
2021/05/13 14:26:08;;;;;;;1.70;0.82;;;;;;;;;;5043444;28;20194;-77
2021/05/13 14:28:34;;;;;;;1.60;0.80;;;;;;;;;;5058995;28;20181;-78
2021/05/13 14:30:59;;;;;;;1.03;0.80;;;;;;;;;;5034273;28;20448;-78
2021/05/13 14:33:25;;;;;;;3.93;1.40;;;;;;;;;;5043171;28;20420;-77
2021/05/13 14:35:53;;;;;;;2.10;0.73;;;;;;;;;;5042963;28;20520;-78
2021/05/13 14:38:19;;;;;;;0.95;0.80;;;;;;;;;;5040208;28;20805;-77
2021/05/13 14:40:44;;;;;;;1.50;0.88;;;;;;;;;;5055881;28;20177;-77
2021/05/13 14:43:10;;;;;;;2.17;1.10;;;;;;;;;;5030682;28;20258;-77
2021/05/13 14:45:37;;;;;;;1.07;0.80;;;;;;;;;;5035699;28;20472;-77
2021/05/13 14:50:35;;;;;;;4.25;0.80;;;;;;;;;;5043292;28;20249;-78
2021/05/13 14:53:01;;;;;;;2.28;1.08;;;;;;;;;;5030402;28;20209;-78
2021/05/13 14:55:27;;;;;;;1.00;0.80;;;;;;;;;;5032867;28;20324;-79
2021/05/13 14:57:53;;;;;;;2.90;0.70;;;;;;;;;;5034981;28;20275;-77
2021/05/13 15:00:20;;;;;;;0.70;0.70;;;;;;;;;;5036716;28;20269;-78
2021/05/13 15:02:46;;;;;;;2.30;1.08;;;;;;;;;;5034948;28;20437;-78